createdAt,value
2018-06-23T00:01:15.667Z,12.00
2018-06-23T00:03:46.161Z,10.50
2018-06-23T00:06:16.920Z,10.17
2018-06-23T00:08:47.152Z,18.53
2018-06-23T00:11:17.888Z,8.90
2018-06-23T00:13:48.541Z,19.93
2018-06-23T00:16:19.419Z,15.67
2018-06-23T00:18:50.040Z,12.23
2018-06-23T00:21:20.737Z,15.10
2018-06-23T00:23:51.281Z,6.80
2018-06-23T00:26:27.038Z,16.37
2018-06-23T00:28:58.045Z,8.63
2018-06-23T00:31:28.720Z,4.27
2018-06-23T00:33:59.226Z,13.30
2018-06-23T00:36:29.826Z,10.27
2018-06-23T00:39:00.446Z,10.60
2018-06-23T00:41:31.101Z,12.80
2018-06-23T00:44:01.623Z,8.20
2018-06-23T00:46:32.390Z,15.57
2018-06-23T00:49:02.988Z,24.73
2018-06-23T00:51:34.561Z,33.60
2018-06-23T00:54:05.374Z,18.00
2018-06-23T00:56:36.220Z,23.33
2018-06-23T00:59:23.591Z,11.23
2018-06-23T01:01:54.332Z,34.13
2018-06-23T01:04:24.987Z,22.53
2018-06-23T01:06:56.150Z,14.90
2018-06-23T01:09:27.028Z,12.07
2018-06-23T01:11:57.539Z,11.93
2018-06-23T01:14:28.141Z,7.97
2018-06-23T01:16:59.624Z,7.07
2018-06-23T01:19:30.194Z,19.97
2018-06-23T01:22:00.756Z,10.53
2018-06-23T01:24:31.261Z,18.53
2018-06-23T01:27:02.089Z,15.00
2018-06-23T01:29:32.803Z,16.07
2018-06-23T01:32:03.512Z,16.00
2018-06-23T01:34:34.404Z,22.67
2018-06-23T01:37:05.153Z,16.27
2018-06-23T01:39:35.622Z,12.80
2018-06-23T01:42:06.300Z,12.97
2018-06-23T01:44:36.907Z,12.57
2018-06-23T01:47:07.669Z,12.40
2018-06-23T01:49:38.305Z,13.60
2018-06-23T01:52:08.869Z,19.23
2018-06-23T01:54:39.346Z,37.50
2018-06-23T01:57:09.992Z,11.00
2018-06-23T01:59:40.578Z,22.40
2018-06-23T02:02:11.192Z,18.93
2018-06-23T02:04:41.683Z,15.23
2018-06-23T02:07:12.193Z,15.97
2018-06-23T02:09:43.760Z,28.60
2018-06-23T02:12:14.424Z,17.00
2018-06-23T02:14:49.995Z,20.97
2018-06-23T02:17:25.793Z,17.50
2018-06-23T02:20:02.287Z,23.03
2018-06-23T02:22:38.060Z,17.07
2018-06-23T02:25:13.853Z,20.80
2018-06-23T02:27:49.831Z,27.17
2018-06-23T02:30:26.096Z,30.20
2018-06-23T02:32:56.599Z,14.33
2018-06-23T02:35:27.274Z,27.27
2018-06-23T02:37:58.304Z,25.53
2018-06-23T02:40:28.800Z,18.23
2018-06-23T02:42:59.476Z,11.93
2018-06-23T02:45:30.196Z,32.53
2018-06-23T02:48:00.943Z,19.83
2018-06-23T02:50:31.790Z,23.73
2018-06-23T02:53:02.030Z,23.57
2018-06-23T02:55:32.177Z,32.00
2018-06-23T02:58:02.642Z,19.53
2018-06-23T03:00:33.274Z,19.17
2018-06-23T03:03:03.953Z,36.13
2018-06-23T03:05:34.631Z,22.37
2018-06-23T03:08:05.483Z,24.73
2018-06-23T03:10:35.985Z,22.07
2018-06-23T03:13:07.042Z,20.13
2018-06-23T03:15:37.867Z,29.63
2018-06-23T03:18:08.719Z,24.83
2018-06-23T03:20:39.339Z,36.60
2018-06-23T03:23:10.145Z,31.63
2018-06-23T03:25:40.830Z,15.93
2018-06-23T03:28:11.716Z,39.10
2018-06-23T03:30:42.730Z,27.43
2018-06-23T03:33:13.400Z,25.33
2018-06-23T03:35:44.143Z,20.17
2018-06-23T03:38:14.974Z,31.03
2018-06-23T03:40:45.748Z,15.20
2018-06-23T03:43:16.772Z,19.33
2018-06-23T03:45:48.864Z,20.60
2018-06-23T03:48:19.540Z,18.33
2018-06-23T03:50:50.308Z,23.70
2018-06-23T03:53:21.048Z,27.57
2018-06-23T03:55:51.741Z,16.63
2018-06-23T03:58:22.310Z,23.67
2018-06-23T04:00:57.687Z,27.13
2018-06-23T04:03:28.590Z,31.70
2018-06-23T04:05:58.987Z,30.47
2018-06-23T04:08:30.042Z,19.03
2018-06-23T04:11:00.895Z,31.77
2018-06-23T04:13:31.737Z,15.90
2018-06-23T04:16:02.364Z,26.93
2018-06-23T04:18:33.507Z,25.90
2018-06-23T04:21:04.279Z,20.33
2018-06-23T04:23:34.848Z,22.23
2018-06-23T04:26:05.909Z,21.70
2018-06-23T04:28:36.637Z,16.27
2018-06-23T04:31:07.781Z,17.60
2018-06-23T04:33:38.383Z,35.73
2018-06-23T04:36:09.134Z,20.47
2018-06-23T04:38:39.792Z,31.30
2018-06-23T04:41:10.403Z,30.47
2018-06-23T04:43:41.202Z,24.57
2018-06-23T04:46:12.840Z,33.63
2018-06-23T04:48:43.529Z,27.03
2018-06-23T04:51:15.109Z,25.63
2018-06-23T04:53:47.818Z,28.37
2018-06-23T04:56:21.573Z,32.07
2018-06-23T04:58:52.235Z,42.97
2018-06-23T05:01:22.832Z,22.97
2018-06-23T05:03:53.361Z,24.20
2018-06-23T05:06:23.980Z,29.10
2018-06-23T05:08:54.633Z,31.33
2018-06-23T05:11:25.242Z,24.50
2018-06-23T05:13:55.883Z,17.40
2018-06-23T05:16:26.454Z,18.00
2018-06-23T05:18:57.057Z,26.07
2018-06-23T05:21:27.816Z,18.17
2018-06-23T05:23:58.663Z,27.87
2018-06-23T05:26:29.478Z,39.43
2018-06-23T05:29:00.068Z,19.23
2018-06-23T05:31:30.803Z,27.43
2018-06-23T05:34:01.341Z,25.00
2018-06-23T05:36:32.394Z,13.10
2018-06-23T05:39:03.069Z,19.10
2018-06-23T05:41:33.690Z,28.37
2018-06-23T05:44:05.161Z,24.47
2018-06-23T05:46:36.152Z,23.93
2018-06-23T05:49:06.648Z,30.00
2018-06-23T05:51:37.237Z,20.23
2018-06-23T05:54:08.011Z,16.33
2018-06-23T05:56:38.688Z,25.10
2018-06-23T05:59:09.281Z,31.70
2018-06-23T06:01:39.776Z,13.47
2018-06-23T06:04:10.272Z,18.03
2018-06-23T06:06:41.003Z,21.20
2018-06-23T06:09:11.728Z,25.20
2018-06-23T06:11:42.524Z,22.77
2018-06-23T06:14:13.372Z,14.67
2018-06-23T06:21:01.333Z,16.60
2018-06-23T06:23:32.515Z,19.93
2018-06-23T06:26:02.955Z,16.40
2018-06-23T06:28:34.528Z,18.23
2018-06-23T06:31:11.732Z,22.10
2018-06-23T06:33:42.279Z,29.50
2018-06-23T06:36:12.803Z,12.80
2018-06-23T06:38:43.405Z,33.63
2018-06-23T06:41:14.016Z,25.53
2018-06-23T06:43:44.665Z,14.37
2018-06-23T06:46:15.148Z,9.33
2018-06-23T06:48:45.667Z,9.73
2018-06-23T06:51:16.444Z,13.57
2018-06-23T06:53:47.047Z,16.57
2018-06-23T06:56:17.416Z,6.00
2018-06-23T06:58:47.858Z,14.40
2018-06-23T07:01:18.464Z,15.90
2018-06-23T07:03:49.036Z,5.90
2018-06-23T07:06:42.627Z,14.73
2018-06-23T07:09:15.046Z,13.60
2018-06-23T07:11:46.160Z,12.13
2018-06-23T07:14:16.678Z,7.87
2018-06-23T07:16:47.255Z,11.67
2018-06-23T07:19:18.589Z,16.67
2018-06-23T07:21:49.115Z,13.03
2018-06-23T07:24:19.626Z,13.47
2018-06-23T07:26:50.222Z,10.33
2018-06-23T07:29:21.727Z,11.50
2018-06-23T07:31:52.664Z,16.33
2018-06-23T07:34:23.419Z,13.20
2018-06-23T07:36:53.676Z,10.97
2018-06-23T07:39:24.138Z,8.83
2018-06-23T07:41:55.534Z,11.10
2018-06-23T07:44:26.689Z,9.20
2018-06-23T07:46:57.278Z,8.30
2018-06-23T07:49:27.907Z,11.87
2018-06-23T07:51:58.991Z,12.43
2018-06-23T07:54:29.732Z,7.30
2018-06-23T07:57:00.359Z,10.97
2018-06-23T07:59:31.261Z,8.20
2018-06-23T08:02:02.066Z,7.93
2018-06-23T08:04:32.340Z,9.30
2018-06-23T08:07:02.939Z,11.00
2018-06-23T08:09:33.501Z,7.47
2018-06-23T08:12:04.185Z,10.43
2018-06-23T08:14:35.593Z,7.77
2018-06-23T08:17:06.239Z,8.13
2018-06-23T08:19:37.823Z,8.63
2018-06-23T08:22:08.637Z,10.33
2018-06-23T08:24:39.468Z,7.03
2018-06-23T08:27:10.185Z,6.00
2018-06-23T08:29:40.868Z,3.67
2018-06-23T08:32:11.454Z,3.90
2018-06-23T08:34:42.168Z,10.30
2018-06-23T08:37:13.485Z,7.00
2018-06-23T08:39:44.263Z,4.07
2018-06-23T08:42:14.908Z,3.43
2018-06-23T08:44:45.826Z,2.57
2018-06-23T08:47:16.514Z,2.50
2018-06-23T08:49:47.394Z,6.90
2018-06-23T08:52:17.927Z,4.13
2018-06-23T08:54:48.547Z,5.67
2018-06-23T08:57:19.077Z,4.83
2018-06-23T08:59:49.709Z,6.60
2018-06-23T09:02:20.963Z,4.43
2018-06-23T09:04:51.824Z,4.87
2018-06-23T09:07:22.439Z,4.73
2018-06-23T09:09:53.100Z,9.00
2018-06-23T09:12:23.761Z,5.90
2018-06-23T09:14:54.429Z,3.93
2018-06-23T09:17:25.113Z,7.60
2018-06-23T09:19:55.374Z,5.30
2018-06-23T09:22:26.027Z,4.80
2018-06-23T09:24:56.732Z,9.03
2018-06-23T09:27:27.470Z,8.27
2018-06-23T09:29:58.127Z,8.83
2018-06-23T09:32:28.828Z,6.53
2018-06-23T09:34:59.567Z,8.83
2018-06-23T09:37:30.339Z,8.37
2018-06-23T09:40:01.137Z,4.20
2018-06-23T09:42:31.874Z,6.10
2018-06-23T09:45:09.261Z,5.40
2018-06-23T09:47:40.148Z,8.73
2018-06-23T09:50:11.009Z,4.97
2018-06-23T09:52:41.778Z,6.47
2018-06-23T09:55:12.395Z,5.03
2018-06-23T09:57:43.754Z,4.20
2018-06-23T10:00:17.061Z,4.80
2018-06-23T10:02:48.382Z,12.27
2018-06-23T10:05:19.170Z,6.57
2018-06-23T10:07:49.803Z,7.57
2018-06-23T10:10:20.557Z,2.83
2018-06-23T10:12:51.074Z,9.40
2018-06-23T10:15:21.578Z,7.37
2018-06-23T10:17:52.886Z,13.40
2018-06-23T10:20:23.166Z,6.67
2018-06-23T10:22:53.834Z,6.87
2018-06-23T10:25:25.206Z,8.70
2018-06-23T10:27:56.275Z,9.57
2018-06-23T10:30:26.933Z,9.33
2018-06-23T10:32:57.875Z,3.73
2018-06-23T10:35:28.445Z,8.83
2018-06-23T10:37:59.171Z,10.13
2018-06-23T10:40:30.159Z,4.13
2018-06-23T10:43:00.622Z,3.10
2018-06-23T10:45:31.001Z,4.77
2018-06-23T10:48:01.669Z,7.13
2018-06-23T10:50:32.977Z,6.40
2018-06-23T10:53:04.542Z,8.53
2018-06-23T10:55:35.068Z,3.57
2018-06-23T10:58:05.948Z,8.07
2018-06-23T11:00:36.352Z,1.90
2018-06-23T11:03:06.732Z,1.33
2018-06-23T11:05:41.695Z,8.97
2018-06-23T11:08:12.364Z,3.83
2018-06-23T11:10:43.157Z,7.17
2018-06-23T11:13:14.000Z,2.10
2018-06-23T11:15:44.597Z,6.33
2018-06-23T11:18:15.129Z,6.83
2018-06-23T11:20:45.958Z,8.77
2018-06-23T11:23:16.613Z,4.97
2018-06-23T11:25:47.291Z,4.77
2018-06-23T11:28:17.932Z,4.43
2018-06-23T11:30:48.209Z,3.93
2018-06-23T11:33:18.931Z,6.67
2018-06-23T11:35:49.494Z,6.23
2018-06-23T11:38:20.176Z,10.73
2018-06-23T11:40:50.770Z,8.33
2018-06-23T11:43:21.642Z,3.67
2018-06-23T11:45:52.448Z,14.13
2018-06-23T11:48:23.120Z,3.17
2018-06-23T11:50:53.909Z,7.30
2018-06-23T11:53:24.832Z,15.73
2018-06-23T11:55:55.442Z,4.13
2018-06-23T11:58:26.085Z,1.53
2018-06-23T12:00:56.782Z,4.87
2018-06-23T12:03:27.397Z,8.07
2018-06-23T12:05:58.150Z,2.07
2018-06-23T12:08:28.966Z,7.43
2018-06-23T12:11:03.376Z,2.40
2018-06-23T12:13:33.885Z,2.93
2018-06-23T12:16:04.443Z,5.17
2018-06-23T12:18:35.380Z,4.23
2018-06-23T12:21:05.904Z,5.20
2018-06-23T12:23:36.601Z,8.17
2018-06-23T12:26:07.950Z,2.60
2018-06-23T12:28:38.611Z,3.87
2018-06-23T12:31:09.337Z,10.30
2018-06-23T12:33:40.107Z,11.60
2018-06-23T12:36:11.485Z,4.70
2018-06-23T12:38:42.248Z,9.80
2018-06-23T12:41:13.152Z,12.33
2018-06-23T12:43:43.859Z,8.80
2018-06-23T12:46:14.853Z,3.90
2018-06-23T12:48:45.645Z,4.83
2018-06-23T12:51:16.537Z,1.87
2018-06-23T12:53:47.292Z,4.53
2018-06-23T12:56:18.385Z,2.93
2018-06-23T12:58:49.514Z,3.53
2018-06-23T13:01:20.315Z,5.57
2018-06-23T13:03:50.853Z,6.63
2018-06-23T13:06:22.056Z,6.83
2018-06-23T13:08:52.648Z,2.20
2018-06-23T13:11:23.349Z,6.00
2018-06-23T13:13:53.780Z,3.57
2018-06-23T13:16:24.217Z,6.67
2018-06-23T13:18:55.908Z,14.50
2018-06-23T13:21:26.578Z,5.67
2018-06-23T13:23:57.257Z,2.40
2018-06-23T13:26:27.988Z,3.17
2018-06-23T13:28:58.740Z,5.47
2018-06-23T13:31:29.432Z,9.50
2018-06-23T13:34:00.028Z,4.50
2018-06-23T13:36:30.584Z,4.83
2018-06-23T13:39:01.095Z,4.93
2018-06-23T13:41:31.731Z,8.50
2018-06-23T13:44:02.571Z,8.43
2018-06-23T13:46:33.728Z,4.30
2018-06-23T13:49:04.388Z,4.67
2018-06-23T13:51:35.169Z,5.40
2018-06-23T13:54:06.037Z,3.60
2018-06-23T13:56:36.626Z,3.40
2018-06-23T13:59:11.420Z,7.13
2018-06-23T14:01:41.816Z,4.43
2018-06-23T14:04:12.365Z,9.70
2018-06-23T14:06:43.058Z,5.97
2018-06-23T14:09:13.843Z,4.40
2018-06-23T14:11:44.355Z,6.37
2018-06-23T14:14:14.878Z,4.30
2018-06-23T14:16:45.566Z,5.07
2018-06-23T14:19:16.174Z,9.27
2018-06-23T14:21:46.806Z,7.10
2018-06-23T14:24:17.478Z,6.37
2018-06-23T14:26:48.111Z,3.60
2018-06-23T14:29:18.669Z,8.30
2018-06-23T14:31:49.257Z,10.23
2018-06-23T14:34:19.998Z,5.90
2018-06-23T14:36:50.715Z,7.63
2018-06-23T14:39:21.477Z,12.23
2018-06-23T14:41:52.245Z,9.60
2018-06-23T14:44:22.523Z,8.30
2018-06-23T14:46:53.249Z,10.13
2018-06-23T14:49:23.788Z,29.07
2018-06-23T14:51:54.630Z,9.60
2018-06-23T14:54:25.486Z,11.03
2018-06-23T14:56:56.509Z,9.60
2018-06-23T14:59:27.096Z,16.43
2018-06-23T15:01:57.963Z,8.90
2018-06-23T15:04:28.730Z,12.97
2018-06-23T15:06:59.019Z,9.70
2018-06-23T15:09:46.408Z,13.05
2018-06-23T15:12:27.891Z,7.73
2018-06-23T15:14:58.652Z,9.87
2018-06-23T15:17:29.720Z,6.90
2018-06-23T15:20:00.693Z,14.40
2018-06-23T15:22:31.462Z,5.37
2018-06-23T15:25:02.001Z,3.13
2018-06-23T15:27:32.629Z,11.73
2018-06-23T15:30:03.417Z,7.13
2018-06-23T15:32:34.380Z,6.83
2018-06-23T15:35:05.123Z,3.30
2018-06-23T15:37:42.498Z,3.10
2018-06-23T15:40:13.203Z,6.40
2018-06-23T15:42:43.935Z,3.43
2018-06-23T15:45:14.666Z,7.40
2018-06-23T15:47:45.573Z,8.20
2018-06-23T15:50:16.911Z,2.70
2018-06-23T15:52:47.749Z,8.93
2018-06-23T15:55:19.397Z,10.90
2018-06-23T15:57:50.014Z,9.43
2018-06-23T16:00:20.576Z,11.07
2018-06-23T16:02:51.148Z,10.00
2018-06-23T16:05:21.919Z,11.93
2018-06-23T16:07:52.649Z,3.10
2018-06-23T16:10:25.801Z,9.87
2018-06-23T16:12:56.581Z,7.03
2018-06-23T16:15:34.238Z,3.63
2018-06-23T16:18:05.137Z,2.87
2018-06-23T16:20:41.993Z,4.90
2018-06-23T16:23:12.794Z,4.07
2018-06-23T16:25:43.580Z,9.23
2018-06-23T16:28:14.290Z,11.00
2018-06-23T16:30:45.436Z,5.90
2018-06-23T16:33:16.102Z,2.27
2018-06-23T16:35:46.762Z,4.87
2018-06-23T16:38:17.446Z,6.60
2018-06-23T16:40:48.194Z,2.47
2018-06-23T16:43:18.872Z,6.30
2018-06-23T16:45:49.124Z,4.27
2018-06-23T16:48:19.882Z,4.83
2018-06-23T16:50:50.403Z,4.63
2018-06-23T16:53:20.969Z,5.77
2018-06-23T16:55:51.748Z,3.47
2018-06-23T16:58:22.634Z,8.67
2018-06-23T17:00:53.336Z,5.10
2018-06-23T17:03:28.596Z,3.23
2018-06-23T17:05:59.281Z,3.30
2018-06-23T17:08:30.022Z,7.23
2018-06-23T17:11:01.409Z,1.87
2018-06-23T17:13:32.050Z,9.60
2018-06-23T17:16:02.691Z,6.50
2018-06-23T17:18:33.283Z,9.40
2018-06-23T17:21:04.031Z,5.63
2018-06-23T17:23:42.626Z,7.90
2018-06-23T17:26:14.108Z,3.60
2018-06-23T17:28:44.802Z,8.00
2018-06-23T17:31:15.393Z,7.70
2018-06-23T17:33:46.289Z,3.70
2018-06-23T17:36:17.123Z,11.03
2018-06-23T17:38:47.722Z,4.77
2018-06-23T17:41:18.402Z,5.33
2018-06-23T17:43:53.152Z,5.67
2018-06-23T17:46:24.044Z,4.93
2018-06-23T17:48:54.811Z,7.20
2018-06-23T17:51:33.445Z,2.70
2018-06-23T17:54:04.217Z,7.00
2018-06-23T17:56:41.534Z,11.37
2018-06-23T17:59:12.337Z,8.20
2018-06-23T18:01:42.712Z,3.63
2018-06-23T18:04:13.279Z,7.00
2018-06-23T18:06:43.897Z,8.33
2018-06-23T18:09:14.476Z,7.47
2018-06-23T18:11:45.879Z,24.73
2018-06-23T18:14:16.689Z,6.00
2018-06-23T18:16:47.918Z,5.33
2018-06-23T18:19:18.510Z,3.90
2018-06-23T18:21:48.977Z,3.30
2018-06-23T18:24:19.585Z,5.87
2018-06-23T18:26:50.399Z,4.50
2018-06-23T18:29:21.069Z,3.00
2018-06-23T18:31:52.349Z,7.10
2018-06-23T18:34:22.939Z,6.33
2018-06-23T18:36:53.495Z,24.20
2018-06-23T18:39:25.332Z,7.47
2018-06-23T18:41:55.997Z,2.73
2018-06-23T18:44:26.673Z,3.50
2018-06-23T18:46:57.545Z,8.10
2018-06-23T18:49:29.410Z,4.77
2018-06-23T18:52:00.048Z,7.13
2018-06-23T18:54:31.748Z,4.23
2018-06-23T18:57:02.544Z,17.83
2018-06-23T18:59:33.279Z,5.60
2018-06-23T19:02:03.947Z,3.27
2018-06-23T19:04:36.059Z,10.40
2018-06-23T19:07:06.882Z,2.60
2018-06-23T19:09:37.108Z,7.53
2018-06-23T19:12:07.742Z,5.40
2018-06-23T19:14:38.431Z,3.40
2018-06-23T19:17:09.283Z,5.53
2018-06-23T19:19:40.786Z,3.80
2018-06-23T19:22:11.508Z,9.73
2018-06-23T19:24:42.258Z,8.90
2018-06-23T19:27:13.086Z,18.60
2018-06-23T19:29:43.818Z,9.23
2018-06-23T19:32:15.414Z,20.80
2018-06-23T19:34:46.298Z,9.80
2018-06-23T19:37:16.751Z,8.33
2018-06-23T19:39:47.320Z,15.43
2018-06-23T19:42:18.037Z,10.50
2018-06-23T19:44:49.062Z,17.37
2018-06-23T19:47:19.992Z,7.20
2018-06-23T19:49:50.528Z,8.50
2018-06-23T19:52:22.068Z,10.47
2018-06-23T19:54:52.902Z,4.87
2018-06-23T19:57:24.163Z,17.40
2018-06-23T19:59:55.444Z,12.27
2018-06-23T20:02:26.327Z,7.80
2018-06-23T20:04:57.084Z,3.73
2018-06-23T20:07:27.755Z,5.77
2018-06-23T20:09:58.087Z,5.10
2018-06-23T20:12:28.446Z,14.20
2018-06-23T20:14:59.029Z,9.50
2018-06-23T20:17:29.672Z,4.83
2018-06-23T20:20:01.209Z,15.67
2018-06-23T20:22:32.097Z,5.60
2018-06-23T20:25:02.844Z,6.83
2018-06-23T20:27:33.633Z,6.87
2018-06-23T20:30:04.949Z,10.27
2018-06-23T20:32:35.824Z,7.13
2018-06-23T20:35:13.386Z,6.13
2018-06-23T20:37:44.149Z,5.10
2018-06-23T20:40:14.954Z,11.30
2018-06-23T20:42:46.706Z,12.33
2018-06-23T20:45:17.616Z,8.50
2018-06-23T20:47:48.225Z,7.63
2018-06-23T20:50:18.986Z,4.87
2018-06-23T20:52:50.217Z,12.77
2018-06-23T20:55:21.866Z,8.30
2018-06-23T20:57:52.738Z,6.23
2018-06-23T21:00:23.550Z,7.80
2018-06-23T21:02:54.707Z,8.37
2018-06-23T21:05:25.524Z,9.90
2018-06-23T21:07:56.185Z,4.47
2018-06-23T21:10:41.170Z,10.53
2018-06-23T21:13:12.598Z,17.97
2018-06-23T21:15:43.296Z,8.53
2018-06-23T21:18:14.031Z,8.13
2018-06-23T21:20:44.726Z,7.30
2018-06-23T21:23:15.607Z,8.90
2018-06-23T21:25:46.274Z,10.13
2018-06-23T21:28:16.933Z,12.30
2018-06-23T21:30:47.884Z,9.23
2018-06-23T21:33:18.600Z,4.33
2018-06-23T21:35:49.291Z,7.03
2018-06-23T21:38:24.439Z,9.20
2018-06-23T21:40:55.357Z,7.97
2018-06-23T21:43:26.101Z,16.93
2018-06-23T21:45:56.895Z,7.23
2018-06-23T21:48:27.676Z,13.00
2018-06-23T21:50:58.598Z,14.73
2018-06-23T21:53:29.394Z,9.20
2018-06-23T21:56:00.053Z,7.80
2018-06-23T21:58:30.904Z,7.97
2018-06-23T22:01:01.748Z,4.70
2018-06-23T22:03:32.357Z,7.73
2018-06-23T22:06:03.101Z,5.10
2018-06-23T22:08:33.798Z,6.37
2018-06-23T22:11:04.209Z,6.00
2018-06-23T22:13:35.004Z,14.63
2018-06-23T22:16:05.785Z,7.97
2018-06-23T22:18:36.812Z,9.60
2018-06-23T22:21:07.456Z,8.87
2018-06-23T22:23:38.145Z,18.03
2018-06-23T22:26:08.798Z,7.57
2018-06-23T22:28:39.513Z,8.23
2018-06-23T22:31:10.148Z,5.07
2018-06-23T22:33:40.813Z,4.77
2018-06-23T22:36:11.415Z,3.80
2018-06-23T22:38:42.579Z,4.30
2018-06-23T22:41:13.052Z,5.60
2018-06-23T22:43:43.697Z,8.43
2018-06-23T22:46:14.583Z,7.93
2018-06-23T22:48:45.402Z,6.87
2018-06-23T22:51:16.128Z,7.93
2018-06-23T22:53:47.049Z,4.47
2018-06-23T22:56:17.800Z,8.23
2018-06-23T22:58:48.432Z,3.67
2018-06-23T23:01:19.274Z,4.73
2018-06-23T23:03:50.053Z,4.63
2018-06-23T23:06:20.705Z,3.33
2018-06-23T23:08:52.034Z,5.50
2018-06-23T23:11:22.675Z,3.57
2018-06-23T23:13:53.588Z,7.10
2018-06-23T23:16:24.199Z,8.53
2018-06-23T23:18:54.751Z,11.13
2018-06-23T23:21:25.341Z,6.93
2018-06-23T23:23:56.091Z,6.83
2018-06-23T23:26:26.967Z,9.80
2018-06-23T23:28:57.637Z,10.23
2018-06-23T23:31:28.223Z,4.00
2018-06-23T23:33:58.759Z,9.03
2018-06-23T23:36:29.305Z,8.63
2018-06-23T23:38:59.874Z,7.30
2018-06-23T23:41:30.701Z,4.03
2018-06-23T23:44:01.511Z,7.93
2018-06-23T23:46:32.077Z,14.30
2018-06-23T23:49:02.696Z,3.63
2018-06-23T23:51:33.446Z,13.87
2018-06-23T23:54:04.383Z,4.07
2018-06-23T23:56:34.852Z,2.87
2018-06-23T23:59:05.600Z,3.70
